createdAt,value
2022-09-12T00:00:43.408Z,8.35
2022-09-12T00:03:10.529Z,8.07
2022-09-12T00:05:51.260Z,9.13
2022-09-12T00:08:25.144Z,8.13
2022-09-12T00:10:52.499Z,4.93
2022-09-12T00:13:26.170Z,7.25
2022-09-12T00:15:53.393Z,5.50
2022-09-12T00:18:27.154Z,5.97
2022-09-12T00:20:54.372Z,6.80
2022-09-12T00:23:28.314Z,7.20
2022-09-12T00:25:55.561Z,7.53
2022-09-12T00:28:22.744Z,7.40
2022-09-12T00:30:56.237Z,7.05
2022-09-12T00:33:30.245Z,7.15
2022-09-12T00:36:04.291Z,7.45
2022-09-12T00:38:31.734Z,6.03
2022-09-12T00:41:05.211Z,7.10
2022-09-12T00:43:36.933Z,6.60
2022-09-12T00:46:22.393Z,6.75
2022-09-12T00:49:09.713Z,6.43
2022-09-12T00:51:44.264Z,6.40
2022-09-12T00:54:13.255Z,7.40
2022-09-12T00:56:49.236Z,7.47
2022-09-12T00:59:19.538Z,6.80
2022-09-12T01:01:55.279Z,5.95
2022-09-12T01:04:24.127Z,6.22
2022-09-12T01:06:58.503Z,7.15
2022-09-12T01:09:26.327Z,9.32
2022-09-12T01:11:54.018Z,11.50
2022-09-12T01:14:28.303Z,10.00
2022-09-12T01:16:55.570Z,7.13
2022-09-12T01:19:48.235Z,6.43
2022-09-12T01:22:44.880Z,5.60
2022-09-12T01:25:21.432Z,5.68
2022-09-12T01:28:01.028Z,8.75
2022-09-12T01:30:51.354Z,8.77
2022-09-12T01:33:39.147Z,7.55
2022-09-12T01:36:13.431Z,7.10
2022-09-12T01:38:47.329Z,7.75
2022-09-12T01:41:24.438Z,7.15
2022-09-12T01:43:51.940Z,6.57
2022-09-12T01:46:22.111Z,7.80
2022-09-12T01:49:03.284Z,6.38
2022-09-12T01:51:38.972Z,5.82
2022-09-12T01:54:15.262Z,6.30
2022-09-12T01:56:43.672Z,6.18
2022-09-12T01:59:36.263Z,6.75
2022-09-12T02:02:26.135Z,8.00
2022-09-12T02:05:05.352Z,8.20
2022-09-12T02:07:37.406Z,7.55
2022-09-12T02:10:15.266Z,7.93
2022-09-12T02:12:48.523Z,7.40
2022-09-12T02:15:23.251Z,7.03
2022-09-12T02:17:51.696Z,9.15
2022-09-12T02:20:46.760Z,9.02
2022-09-12T02:23:18.259Z,9.70
2022-09-12T02:25:53.263Z,9.80
2022-09-12T02:28:30.483Z,8.50
2022-09-12T02:31:22.308Z,6.28
2022-09-12T02:33:54.889Z,6.70
2022-09-12T02:36:47.365Z,7.80
2022-09-12T02:39:19.529Z,7.20
2022-09-12T02:41:54.291Z,6.40
2022-09-12T02:44:21.632Z,7.68
2022-09-12T02:47:04.441Z,9.32
2022-09-12T02:49:38.241Z,9.80
2022-09-12T02:52:12.402Z,11.25
2022-09-12T02:54:39.754Z,8.30
2022-09-12T02:57:23.290Z,8.43
2022-09-12T02:59:58.171Z,8.98
2022-09-12T03:02:51.399Z,9.25
2022-09-12T03:05:39.172Z,8.60
2022-09-12T03:08:29.463Z,9.13
2022-09-12T03:11:12.169Z,8.60
2022-09-12T03:13:51.525Z,7.93
2022-09-12T03:16:38.232Z,9.95
2022-09-12T03:19:14.907Z,9.57
2022-09-12T03:22:07.212Z,10.10
2022-09-12T03:24:38.189Z,9.52
2022-09-12T03:27:23.190Z,9.43
2022-09-12T03:30:11.275Z,9.98
2022-09-12T03:32:55.329Z,9.50
2022-09-12T03:35:23.988Z,9.10
2022-09-12T03:37:51.911Z,10.73
2022-09-12T03:40:26.368Z,10.10
2022-09-12T03:42:53.763Z,9.45
2022-09-12T03:45:27.321Z,10.27
2022-09-12T03:47:54.564Z,10.25
2022-09-12T03:50:31.506Z,10.73
2022-09-12T03:53:02.066Z,11.25
2022-09-12T03:55:36.300Z,11.35
2022-09-12T03:58:03.534Z,10.48
2022-09-12T04:00:30.654Z,10.98
2022-09-12T04:03:04.460Z,10.68
2022-09-12T04:05:31.618Z,10.57
2022-09-12T04:07:58.783Z,10.57
2022-09-12T04:10:32.276Z,10.77
2022-09-12T04:13:06.244Z,10.30
2022-09-12T04:15:33.430Z,11.23
2022-09-12T04:18:05.609Z,9.30
2022-09-12T04:20:40.306Z,10.77
2022-09-12T04:23:07.549Z,11.70
2022-09-12T04:25:41.371Z,10.77
2022-09-12T04:28:08.563Z,12.60
2022-09-12T04:30:42.394Z,11.23
2022-09-12T04:33:16.218Z,10.85
2022-09-12T04:35:50.419Z,10.23
2022-09-12T04:38:17.624Z,11.32
2022-09-12T04:40:44.790Z,13.10
2022-09-12T04:43:18.365Z,11.02
2022-09-12T04:45:45.521Z,10.10
2022-09-12T04:48:19.306Z,10.05
2022-09-12T04:50:46.471Z,11.65
2022-09-12T04:53:20.299Z,12.48
2022-09-12T04:55:47.892Z,11.60
2022-09-12T05:00:48.957Z,12.80
2022-09-12T05:03:16.351Z,13.40
2022-09-12T05:05:53.317Z,13.05
2022-09-12T05:08:23.588Z,12.80
2022-09-12T05:10:57.356Z,12.95
2022-09-12T05:13:25.356Z,12.52
2022-09-12T05:16:02.319Z,12.50
2022-09-12T05:18:29.886Z,11.35
2022-09-12T05:23:30.728Z,12.60
2022-09-12T05:26:05.562Z,13.32
2022-09-12T05:28:33.876Z,13.73
2022-09-12T05:31:15.579Z,13.63
2022-09-12T05:33:43.848Z,14.48
2022-09-12T05:36:12.326Z,13.52
2022-09-12T05:38:46.375Z,12.32
2022-09-12T05:41:24.721Z,12.02
2022-09-12T05:44:02.472Z,12.20
2022-09-12T05:46:33.486Z,11.07
2022-09-12T05:49:11.542Z,12.27
2022-09-12T05:51:40.868Z,11.57
2022-09-12T05:54:08.975Z,12.57
2022-09-12T05:56:46.439Z,13.20
2022-09-12T05:59:15.077Z,12.30
2022-09-12T06:01:48.375Z,11.82
2022-09-12T06:04:23.765Z,12.20
2022-09-12T06:06:58.315Z,11.65
2022-09-12T06:09:25.708Z,11.25
2022-09-12T06:11:59.574Z,11.30
2022-09-12T06:14:33.335Z,10.25
2022-09-12T06:17:07.583Z,10.25
2022-09-12T06:19:34.945Z,10.63
2022-09-12T06:22:02.413Z,11.40
2022-09-12T06:24:36.356Z,11.48
2022-09-12T06:27:03.652Z,10.63
2022-09-12T06:29:39.373Z,9.90
2022-09-12T06:32:13.265Z,10.05
2022-09-12T06:34:47.599Z,9.82
2022-09-12T06:37:14.888Z,9.63
2022-09-12T06:39:42.261Z,9.98
2022-09-12T06:42:16.475Z,10.05
2022-09-12T06:44:44.265Z,9.20
2022-09-12T06:47:12.082Z,9.02
2022-09-12T06:49:45.342Z,9.43
2022-09-12T06:52:12.556Z,8.88
2022-09-12T06:54:46.395Z,8.88
2022-09-12T06:57:13.519Z,8.70
2022-09-12T06:59:40.800Z,8.77
2022-09-12T07:02:16.567Z,7.80
2022-09-12T07:04:43.774Z,7.15
2022-09-12T07:07:18.362Z,6.82
2022-09-12T07:09:45.611Z,7.43
2022-09-12T07:12:19.386Z,6.38
2022-09-12T07:14:46.626Z,6.70
2022-09-12T07:17:20.372Z,7.45
2022-09-12T07:19:47.765Z,5.97
2022-09-12T07:22:14.851Z,6.43
2022-09-12T07:24:48.556Z,5.68
2022-09-12T07:27:15.851Z,5.45
2022-09-12T07:29:44.291Z,6.03
2022-09-12T07:32:25.403Z,5.03
2022-09-12T07:34:59.299Z,5.22
2022-09-12T07:37:26.482Z,4.70
2022-09-12T07:40:00.357Z,4.13
2022-09-12T07:42:27.649Z,4.65
2022-09-12T07:45:01.420Z,4.50
2022-09-12T07:47:28.712Z,3.63
2022-09-12T07:49:56.619Z,4.22
2022-09-12T07:52:30.457Z,4.00
2022-09-12T07:54:57.656Z,4.05
2022-09-12T07:57:31.447Z,4.07
2022-09-12T07:59:58.655Z,3.85
2022-09-12T08:02:25.837Z,4.75
2022-09-12T08:05:00.388Z,4.03
2022-09-12T08:07:27.658Z,3.65
2022-09-12T08:09:54.964Z,3.28
2022-09-12T08:12:28.430Z,3.55
2022-09-12T08:14:55.654Z,3.58
2022-09-12T08:17:29.370Z,3.80
2022-09-12T08:19:57.016Z,3.40
2022-09-12T08:22:24.506Z,3.17
2022-09-12T08:24:58.556Z,3.13
2022-09-12T08:27:25.938Z,2.55
2022-09-12T08:30:12.385Z,3.20
2022-09-12T08:32:39.544Z,2.92
2022-09-12T08:35:06.869Z,2.60
2022-09-12T08:37:40.386Z,2.70
2022-09-12T08:40:08.483Z,3.05
2022-09-12T08:43:03.406Z,2.50
2022-09-12T08:45:34.130Z,2.60
2022-09-12T08:48:10.398Z,2.53
2022-09-12T08:50:37.703Z,2.72
2022-09-12T08:53:28.499Z,2.50
2022-09-12T08:55:59.598Z,2.03
2022-09-12T08:58:34.468Z,2.00
2022-09-12T09:01:01.664Z,2.10
2022-09-12T09:03:42.612Z,1.80
2022-09-12T09:06:18.284Z,1.58
2022-09-12T09:09:05.582Z,1.75
2022-09-12T09:11:45.858Z,2.22
2022-09-12T09:14:42.416Z,1.77
2022-09-12T09:17:18.292Z,1.98
2022-09-12T09:19:50.961Z,2.00
2022-09-12T09:22:33.302Z,2.03
2022-09-12T09:25:03.103Z,1.77
2022-09-12T09:27:42.304Z,1.92
2022-09-12T09:30:31.478Z,1.70
2022-09-12T09:33:07.328Z,1.42
2022-09-12T09:35:47.526Z,1.88
2022-09-12T09:38:29.324Z,1.80
2022-09-12T09:40:59.564Z,1.70
2022-09-12T09:43:36.311Z,1.67
2022-09-12T09:46:04.140Z,1.85
2022-09-12T09:48:44.337Z,1.52
2022-09-12T09:51:11.755Z,1.80
2022-09-12T09:53:45.356Z,1.48
2022-09-12T09:56:29.802Z,1.60
2022-09-12T09:59:03.485Z,1.95
2022-09-12T10:01:30.787Z,1.70
2022-09-12T10:03:58.022Z,1.50
2022-09-12T10:06:40.511Z,1.70
2022-09-12T10:09:18.136Z,1.92
2022-09-12T10:11:52.610Z,1.48
2022-09-12T10:14:32.032Z,1.50
2022-09-12T10:17:06.487Z,1.63
2022-09-12T10:19:35.420Z,1.80
2022-09-12T10:22:10.401Z,1.70
2022-09-12T10:24:41.205Z,1.40
2022-09-12T10:27:27.404Z,1.67
2022-09-12T10:29:56.434Z,1.55
2022-09-12T10:32:41.418Z,1.70
2022-09-12T10:35:29.095Z,1.70
2022-09-12T10:38:09.651Z,1.60
2022-09-12T10:40:41.517Z,1.60
2022-09-12T10:43:25.591Z,1.75
2022-09-12T10:45:52.880Z,1.85
2022-09-12T10:48:35.476Z,1.67
2022-09-12T10:51:03.429Z,1.63
2022-09-12T10:53:47.821Z,1.65
2022-09-12T10:56:17.154Z,1.25
2022-09-12T10:58:44.414Z,1.85
2022-09-12T11:01:36.476Z,1.48
2022-09-12T11:04:22.330Z,1.70
2022-09-12T11:07:14.601Z,1.50
2022-09-12T11:09:48.015Z,1.70
2022-09-12T11:12:33.637Z,1.65
2022-09-12T11:15:19.624Z,2.10
2022-09-12T11:17:59.451Z,1.92
2022-09-12T11:20:26.525Z,1.70
2022-09-12T11:23:11.671Z,1.58
2022-09-12T11:25:49.018Z,1.65
2022-09-12T11:28:22.592Z,1.38
2022-09-12T11:30:59.471Z,1.80
2022-09-12T11:33:33.544Z,1.98
2022-09-12T11:36:03.328Z,1.90
2022-09-12T11:38:54.470Z,1.77
2022-09-12T11:41:21.615Z,1.70
2022-09-12T11:44:03.627Z,1.90
2022-09-12T11:46:38.045Z,1.80
2022-09-12T11:49:22.008Z,1.80
2022-09-12T11:51:55.368Z,1.55
2022-09-12T11:54:35.623Z,1.60
2022-09-12T11:57:06.619Z,1.23
2022-09-12T11:59:51.038Z,1.30
2022-09-12T12:02:22.965Z,1.52
2022-09-12T12:05:23.466Z,1.48
2022-09-12T12:07:54.978Z,1.80
2022-09-12T12:10:34.639Z,1.80
2022-09-12T12:13:03.943Z,1.55
2022-09-12T12:15:31.736Z,1.65
2022-09-12T12:18:10.601Z,1.83
2022-09-12T12:20:37.945Z,1.48
2022-09-12T12:23:11.711Z,1.80
2022-09-12T12:25:40.576Z,1.60
2022-09-12T12:28:08.096Z,1.80
2022-09-12T12:33:15.491Z,1.70
2022-09-12T12:36:09.495Z,1.83
2022-09-12T12:38:38.243Z,1.95
2022-09-12T12:41:24.472Z,1.67
2022-09-12T12:43:52.422Z,2.42
2022-09-12T12:46:26.735Z,1.70
2022-09-12T12:48:59.095Z,1.60
2022-09-12T12:51:47.599Z,1.88
2022-09-12T12:54:32.223Z,1.50
2022-09-12T12:57:10.642Z,1.35
2022-09-12T12:59:37.887Z,2.03
2022-09-12T13:02:05.610Z,1.70
2022-09-12T13:04:39.740Z,1.90
2022-09-12T13:07:08.881Z,1.42
2022-09-12T13:09:54.572Z,1.45
2022-09-12T13:12:30.093Z,1.65
2022-09-12T13:15:05.634Z,1.67
2022-09-12T13:17:38.885Z,1.20
2022-09-12T13:20:28.368Z,1.40
2022-09-12T13:22:56.711Z,1.60
2022-09-12T13:28:27.529Z,1.50
2022-09-12T13:31:16.034Z,1.60
2022-09-12T13:33:58.619Z,1.50
2022-09-12T13:36:28.516Z,1.52
2022-09-12T13:39:20.681Z,1.27
2022-09-12T13:41:53.863Z,1.20
2022-09-12T13:44:29.820Z,1.70
2022-09-12T13:46:59.654Z,1.52
2022-09-12T13:49:44.688Z,1.30
2022-09-12T13:52:20.638Z,1.50
2022-09-12T13:54:56.516Z,1.50
2022-09-12T13:57:41.392Z,1.40
2022-09-12T14:00:20.698Z,1.40
2022-09-12T14:02:48.646Z,1.30
2022-09-12T14:05:31.729Z,0.98
2022-09-12T14:08:01.436Z,1.40
2022-09-12T14:10:42.655Z,1.48
2022-09-12T14:13:14.636Z,1.40
2022-09-12T14:15:51.621Z,1.10
2022-09-12T14:18:29.443Z,1.40
2022-09-12T14:20:58.445Z,1.55
2022-09-12T14:23:34.595Z,1.35
2022-09-12T14:26:03.615Z,1.50
2022-09-12T14:28:31.232Z,1.30
2022-09-12T14:31:09.627Z,1.40
2022-09-12T14:33:50.553Z,1.42
2022-09-12T14:36:25.531Z,1.15
2022-09-12T14:39:01.675Z,1.60
2022-09-12T14:41:37.719Z,1.50
2022-09-12T14:44:07.744Z,1.30
2022-09-12T14:46:51.560Z,1.52
2022-09-12T14:49:22.463Z,1.58
2022-09-12T14:51:58.674Z,1.50
2022-09-12T14:54:29.222Z,1.75
2022-09-12T14:56:57.562Z,1.73
2022-09-12T14:59:37.550Z,1.80
2022-09-12T15:02:22.805Z,1.60
2022-09-12T15:04:57.590Z,1.73
2022-09-12T15:07:33.880Z,1.85
2022-09-12T15:10:08.569Z,1.30
2022-09-12T15:12:35.655Z,1.63
2022-09-12T15:15:22.531Z,1.90
2022-09-12T15:20:30.720Z,1.88
2022-09-12T15:22:57.894Z,1.77
2022-09-12T15:25:25.170Z,1.42
2022-09-12T15:28:00.568Z,1.60
2022-09-12T15:30:27.809Z,1.42
2022-09-12T15:33:01.552Z,1.45
2022-09-12T15:35:33.823Z,1.52
2022-09-12T15:38:07.764Z,1.80
2022-09-12T15:40:34.922Z,1.65
2022-09-12T15:43:02.871Z,1.67
2022-09-12T15:45:38.647Z,1.60
2022-09-12T15:48:06.355Z,1.63
2022-09-12T15:50:40.640Z,1.52
2022-09-12T15:53:07.820Z,1.60
2022-09-12T15:55:41.567Z,1.70
2022-09-12T15:58:09.157Z,1.58
2022-09-12T16:03:20.913Z,2.30
2022-09-12T16:05:54.554Z,1.80
2022-09-12T16:08:21.794Z,1.75
2022-09-12T16:10:57.741Z,1.85
2022-09-12T16:13:24.973Z,1.85
2022-09-12T16:15:52.870Z,1.88
2022-09-12T16:18:26.713Z,1.92
2022-09-12T16:21:15.760Z,1.75
2022-09-12T16:23:53.583Z,2.00
2022-09-12T16:26:21.403Z,1.80
2022-09-12T16:28:48.801Z,2.00
2022-09-12T16:34:05.485Z,1.98
2022-09-12T16:36:39.575Z,2.17
2022-09-12T16:39:13.496Z,2.10
2022-09-12T16:41:49.726Z,2.60
2022-09-12T16:44:16.908Z,1.95
2022-09-12T16:46:44.124Z,1.73
2022-09-12T16:49:18.954Z,2.00
2022-09-12T16:51:47.670Z,2.20
2022-09-12T16:54:28.606Z,2.10
2022-09-12T16:57:02.491Z,2.42
2022-09-12T16:59:29.672Z,2.17
2022-09-12T17:02:03.537Z,2.00
2022-09-12T17:04:30.884Z,2.17
2022-09-12T17:07:05.521Z,2.00
2022-09-12T17:09:32.790Z,2.00
2022-09-12T17:12:07.493Z,2.13
2022-09-12T17:14:34.708Z,2.15
2022-09-12T17:17:08.700Z,2.03
2022-09-12T17:19:55.635Z,2.00
2022-09-12T17:22:29.660Z,2.10
2022-09-12T17:24:56.983Z,2.00
2022-09-12T17:27:24.241Z,2.10
2022-09-12T17:29:57.654Z,2.13
2022-09-12T17:32:24.783Z,2.20
2022-09-12T17:34:58.608Z,2.45
2022-09-12T17:37:25.803Z,2.15
2022-09-12T17:40:00.073Z,1.85
2022-09-12T17:42:27.285Z,2.20
2022-09-12T17:44:55.704Z,2.28
2022-09-12T17:47:29.680Z,2.10
2022-09-12T17:50:27.851Z,2.17
2022-09-12T17:52:51.535Z,2.15
2022-09-12T17:55:25.566Z,2.33
2022-09-12T17:57:52.973Z,2.15
2022-09-12T18:00:46.674Z,2.30
2022-09-12T18:03:14.409Z,2.35
2022-09-12T18:05:54.572Z,2.33
2022-09-12T18:08:28.728Z,2.40
2022-09-12T18:11:03.682Z,2.40
2022-09-12T18:13:38.604Z,1.98
2022-09-12T18:16:10.298Z,2.13
2022-09-12T18:18:44.818Z,2.10
2022-09-12T18:21:19.857Z,2.10
2022-09-12T18:23:54.753Z,2.00
2022-09-12T18:26:22.715Z,2.00
2022-09-12T18:28:56.814Z,1.95
2022-09-12T18:31:24.968Z,2.08
2022-09-12T18:33:52.436Z,2.03
2022-09-12T18:36:27.603Z,1.70
2022-09-12T18:39:01.564Z,1.90
2022-09-12T18:41:29.127Z,2.10
2022-09-12T18:46:30.735Z,2.20
2022-09-12T18:49:04.534Z,1.85
2022-09-12T18:51:34.155Z,2.28
2022-09-12T18:54:09.676Z,2.20
2022-09-12T18:56:38.486Z,2.20
2022-09-12T18:59:06.737Z,1.90
2022-09-12T19:01:42.654Z,2.13
2022-09-12T19:04:10.347Z,2.10
2022-09-12T19:09:11.567Z,1.90
2022-09-12T19:11:46.622Z,1.95
2022-09-12T19:14:13.804Z,2.38
2022-09-12T19:16:47.632Z,1.88
2022-09-12T19:19:14.880Z,2.03
2022-09-12T19:21:55.706Z,2.00
2022-09-12T19:24:29.730Z,2.03
2022-09-12T19:27:03.787Z,2.22
2022-09-12T19:29:45.638Z,2.75
2022-09-12T19:32:25.731Z,2.60
2022-09-12T19:34:52.981Z,2.40
2022-09-12T19:37:26.643Z,2.45
2022-09-12T19:39:53.863Z,2.60
2022-09-12T19:42:27.725Z,3.00
2022-09-12T19:44:55.883Z,2.30
2022-09-12T19:47:31.655Z,3.15
2022-09-12T19:49:58.828Z,2.60
2022-09-12T19:52:32.633Z,2.55
2022-09-12T19:54:59.879Z,2.60
2022-09-12T19:57:33.754Z,2.42
2022-09-12T20:00:00.928Z,2.55
2022-09-12T20:02:35.813Z,2.65
2022-09-12T20:05:03.116Z,2.97
2022-09-12T20:07:36.743Z,2.78
2022-09-12T20:10:03.919Z,2.60
2022-09-12T20:12:37.685Z,2.60
2022-09-12T20:15:05.324Z,2.83
2022-09-12T20:20:06.962Z,3.10
2022-09-12T20:22:40.688Z,2.72
2022-09-12T20:25:15.660Z,2.80
2022-09-12T20:27:42.768Z,2.97
2022-09-12T20:30:16.676Z,3.33
2022-09-12T20:32:43.853Z,3.28
2022-09-12T20:35:11.253Z,3.47
2022-09-12T20:37:46.786Z,3.10
2022-09-12T20:40:14.061Z,3.35
2022-09-12T20:42:41.302Z,2.90
2022-09-12T20:45:14.702Z,2.85
2022-09-12T20:47:41.821Z,2.80
2022-09-12T20:50:09.171Z,2.70
2022-09-12T20:52:42.732Z,2.95
2022-09-12T20:55:16.585Z,3.00
2022-09-12T20:57:50.692Z,3.13
2022-09-12T21:00:24.636Z,2.95
2022-09-12T21:02:52.552Z,2.88
2022-09-12T21:05:19.686Z,2.90
2022-09-12T21:07:53.770Z,3.03
2022-09-12T21:10:20.966Z,2.70
2022-09-12T21:12:54.873Z,3.03
2022-09-12T21:15:22.069Z,3.00
2022-09-12T21:17:49.194Z,3.45
2022-09-12T21:20:22.890Z,3.10
2022-09-12T21:22:50.229Z,2.80
2022-09-12T21:25:17.347Z,2.72
2022-09-12T21:27:50.768Z,3.03
2022-09-12T21:30:24.603Z,3.28
2022-09-12T21:32:51.831Z,2.92
2022-09-12T21:35:25.641Z,3.45
2022-09-12T21:37:53.328Z,2.92
2022-09-12T21:40:20.591Z,2.85
2022-09-12T21:42:56.753Z,3.30
2022-09-12T21:45:23.941Z,2.88
2022-09-12T21:47:57.827Z,3.30
2022-09-12T21:50:25.072Z,3.08
2022-09-12T21:52:52.185Z,3.20
2022-09-12T21:55:26.717Z,2.92
2022-09-12T21:57:54.449Z,2.80
2022-09-12T22:00:28.740Z,3.42
2022-09-12T22:02:56.257Z,3.15
2022-09-12T22:05:30.705Z,3.30
2022-09-12T22:07:58.848Z,3.20
2022-09-12T22:10:39.741Z,3.70
2022-09-12T22:13:07.063Z,3.40
2022-09-12T22:15:40.566Z,3.33
2022-09-12T22:18:14.758Z,2.97
2022-09-12T22:21:01.611Z,3.47
2022-09-12T22:23:54.855Z,3.10
2022-09-12T22:26:22.183Z,3.10
2022-09-12T22:28:56.691Z,3.08
2022-09-12T22:31:24.015Z,3.22
2022-09-12T22:33:57.849Z,3.15
2022-09-12T22:36:29.239Z,3.40
2022-09-12T22:39:04.917Z,3.10
2022-09-12T22:41:32.378Z,3.25
2022-09-12T22:43:59.820Z,3.22
2022-09-12T22:46:33.852Z,3.13
2022-09-12T22:49:01.186Z,3.45
2022-09-12T22:51:28.449Z,3.70
2022-09-12T22:54:02.891Z,3.78
2022-09-12T22:56:30.184Z,3.90
2022-09-12T22:58:57.265Z,3.53
2022-09-12T23:01:30.729Z,3.88
2022-09-12T23:03:58.505Z,3.65
2022-09-12T23:06:32.829Z,4.35
2022-09-12T23:09:00.067Z,4.63
2022-09-12T23:11:27.746Z,3.85
2022-09-12T23:16:32.005Z,4.10
2022-09-12T23:19:05.759Z,4.75
2022-09-12T23:21:39.745Z,4.70
2022-09-12T23:24:13.698Z,4.13
2022-09-12T23:26:40.995Z,5.03
2022-09-12T23:29:14.795Z,5.00
2022-09-12T23:31:41.963Z,5.20
2022-09-12T23:34:10.360Z,5.05
2022-09-12T23:36:43.765Z,5.28
2022-09-12T23:39:17.647Z,5.70
2022-09-12T23:41:51.745Z,6.18
2022-09-12T23:44:25.658Z,4.55
2022-09-12T23:46:59.765Z,5.03
2022-09-12T23:49:33.672Z,6.07
2022-09-12T23:52:00.939Z,5.57
2022-09-12T23:54:28.223Z,5.65
2022-09-12T23:57:01.780Z,5.03
2022-09-12T23:59:30.977Z,5.40
